createdAt,value
2023-02-12T00:00:55.376Z,98.9
2023-02-12T00:01:58.889Z,98.9
2023-02-12T00:03:01.453Z,98.9
2023-02-12T00:04:04.494Z,98.9
2023-02-12T00:05:08.230Z,98.9
2023-02-12T00:06:16.299Z,98.8
2023-02-12T00:07:19.476Z,98.8
2023-02-12T00:08:22.583Z,98.8
2023-02-12T00:09:25.092Z,98.8
2023-02-12T00:10:29.222Z,98.8
2023-02-12T00:11:32.365Z,98.7
2023-02-12T00:12:35.178Z,98.8
2023-02-12T00:13:38.877Z,98.9
2023-02-12T00:14:42.088Z,98.9
2023-02-12T00:15:45.757Z,98.9
2023-02-12T00:16:49.209Z,98.9
2023-02-12T00:17:52.250Z,98.9
2023-02-12T00:18:55.596Z,98.8
2023-02-12T00:19:59.015Z,98.8
2023-02-12T00:21:02.763Z,98.8
2023-02-12T00:22:06.161Z,98.8
2023-02-12T00:23:09.156Z,98.8
2023-02-12T00:24:12.236Z,98.9
2023-02-12T00:25:15.098Z,99
2023-02-12T00:26:18.327Z,99
2023-02-12T00:27:21.501Z,99
2023-02-12T00:28:24.689Z,98.9
2023-02-12T00:29:27.615Z,98.8
2023-02-12T00:30:31.154Z,98.7
2023-02-12T00:31:34.896Z,98.5
2023-02-12T00:32:38.076Z,98.3
2023-02-12T00:33:41.504Z,98.3
2023-02-12T00:34:44.370Z,98.2
2023-02-12T00:35:47.416Z,98.1
2023-02-12T00:36:51.435Z,98.1
2023-02-12T00:37:54.529Z,97.9
2023-02-12T00:38:57.329Z,97.8
2023-02-12T00:40:00.404Z,97.8
2023-02-12T00:41:04.166Z,97.8
2023-02-12T00:42:07.618Z,97.9
2023-02-12T00:43:10.824Z,98.1
2023-02-12T00:44:14.302Z,98.3
2023-02-12T00:45:17.389Z,98.5
2023-02-12T00:46:21.037Z,98.7
2023-02-12T00:47:24.939Z,98.9
2023-02-12T00:48:28.295Z,98.9
2023-02-12T00:49:31.829Z,99
2023-02-12T00:50:35.214Z,99.2
2023-02-12T00:51:38.652Z,99.2
2023-02-12T00:52:42.139Z,99.3
2023-02-12T00:53:45.184Z,99.4
2023-02-12T00:54:48.240Z,99.5
2023-02-12T00:55:51.539Z,99.4
2023-02-12T00:56:54.592Z,99.4
2023-02-12T00:57:57.962Z,99.4
2023-02-12T00:59:01.310Z,99.4
2023-02-12T01:00:04.307Z,99.4
2023-02-12T01:01:07.577Z,99.4
2023-02-12T01:02:11.188Z,99.4
2023-02-12T01:03:14.828Z,99.4
2023-02-12T01:04:17.712Z,99.4
2023-02-12T01:05:20.906Z,99.5
2023-02-12T01:06:24.372Z,99.5
2023-02-12T01:07:27.484Z,99.5
2023-02-12T01:08:30.894Z,99.5
2023-02-12T01:09:33.699Z,99.5
2023-02-12T01:10:37.157Z,99.5
2023-02-12T01:11:40.206Z,99.5
2023-02-12T01:12:43.373Z,99.6
2023-02-12T01:13:47.146Z,99.6
2023-02-12T01:14:50.550Z,99.6
2023-02-12T01:15:55.419Z,99.7
2023-02-12T01:16:59.475Z,99.7
2023-02-12T01:18:02.319Z,99.7
2023-02-12T01:19:05.069Z,99.6
2023-02-12T01:20:08.309Z,99.5
2023-02-12T01:21:10.879Z,99.5
2023-02-12T01:22:14.557Z,99.5
2023-02-12T01:23:17.275Z,99.5
2023-02-12T01:24:20.470Z,99.5
2023-02-12T01:25:23.548Z,99.5
2023-02-12T01:26:27.025Z,99.5
2023-02-12T01:27:30.540Z,99.6
2023-02-12T01:28:33.510Z,99.6
2023-02-12T01:29:36.760Z,99.6
2023-02-12T01:30:39.826Z,99.6
2023-02-12T01:31:44.395Z,99.5
2023-02-12T01:32:47.652Z,99.5
2023-02-12T01:33:51.024Z,99.7
2023-02-12T01:34:53.893Z,99.8
2023-02-12T01:35:57.986Z,99.8
2023-02-12T01:37:01.712Z,99.9
2023-02-12T01:38:04.495Z,100
2023-02-12T01:39:07.313Z,100
2023-02-12T01:40:11.106Z,100
2023-02-12T01:41:14.497Z,100
2023-02-12T01:42:17.821Z,100
2023-02-12T01:43:21.159Z,100
2023-02-12T01:44:24.159Z,100
2023-02-12T01:45:27.077Z,100
2023-02-12T01:46:31.276Z,100
2023-02-12T01:47:34.446Z,100
2023-02-12T01:48:37.859Z,100
2023-02-12T01:49:41.265Z,100
2023-02-12T01:50:44.346Z,100
2023-02-12T01:51:47.603Z,100
2023-02-12T01:52:51.513Z,100
2023-02-12T01:53:54.860Z,100
2023-02-12T01:54:58.711Z,100
2023-02-12T01:56:02.158Z,100
2023-02-12T01:57:05.648Z,100
2023-02-12T01:58:09.061Z,100
2023-02-12T01:59:11.554Z,100
2023-02-12T02:00:14.830Z,100
2023-02-12T02:01:18.775Z,100
2023-02-12T02:02:22.121Z,100
2023-02-12T02:03:25.506Z,100
2023-02-12T02:04:28.782Z,100
2023-02-12T02:05:31.565Z,100
2023-02-12T02:06:34.364Z,100
2023-02-12T02:07:37.442Z,100
2023-02-12T02:08:40.802Z,100
2023-02-12T02:09:44.139Z,100
2023-02-12T02:10:47.236Z,100
2023-02-12T02:11:50.705Z,100
2023-02-12T02:12:53.228Z,100
2023-02-12T02:13:56.121Z,100
2023-02-12T02:15:00.157Z,100
2023-02-12T02:16:03.421Z,100
2023-02-12T02:17:07.364Z,100
2023-02-12T02:18:11.445Z,100
2023-02-12T02:19:14.812Z,100
2023-02-12T02:20:17.565Z,100
2023-02-12T02:21:20.618Z,100
2023-02-12T02:22:23.387Z,100
2023-02-12T02:23:26.694Z,100
2023-02-12T02:24:30.111Z,100
2023-02-12T02:25:33.215Z,100
2023-02-12T02:26:36.492Z,100
2023-02-12T02:27:40.272Z,100
2023-02-12T02:28:43.252Z,100
2023-02-12T02:29:47.018Z,100
2023-02-12T02:30:49.906Z,100
2023-02-12T02:31:53.334Z,100
2023-02-12T02:32:57.361Z,100
2023-02-12T02:34:00.639Z,100
2023-02-12T02:35:03.989Z,100
2023-02-12T02:36:07.107Z,100
2023-02-12T02:37:10.084Z,100
2023-02-12T02:38:13.694Z,100
2023-02-12T02:39:16.285Z,100
2023-02-12T02:40:19.085Z,100
2023-02-12T02:41:21.873Z,100
2023-02-12T02:42:25.313Z,100
2023-02-12T02:43:28.448Z,100
2023-02-12T02:44:30.941Z,100
2023-02-12T02:45:33.741Z,100
2023-02-12T02:46:36.850Z,100
2023-02-12T02:47:40.031Z,100
2023-02-12T02:48:43.427Z,100
2023-02-12T02:49:46.568Z,100
2023-02-12T02:50:50.249Z,100
2023-02-12T02:51:53.484Z,100
2023-02-12T02:52:56.544Z,100
2023-02-12T02:53:59.840Z,100
2023-02-12T02:55:03.162Z,100
2023-02-12T02:56:06.583Z,100
2023-02-12T02:57:09.663Z,100
2023-02-12T02:58:13.017Z,100
2023-02-12T02:59:16.235Z,100
2023-02-12T03:00:19.119Z,100
2023-02-12T03:01:22.328Z,100
2023-02-12T03:02:25.087Z,100
2023-02-12T03:03:28.489Z,100
2023-02-12T03:04:31.739Z,100
2023-02-12T03:05:35.318Z,100
2023-02-12T03:06:38.687Z,100
2023-02-12T03:07:42.095Z,100
2023-02-12T03:08:44.802Z,100
2023-02-12T03:09:48.173Z,100
2023-02-12T03:10:51.699Z,100
2023-02-12T03:11:54.403Z,100
2023-02-12T03:12:57.654Z,100
2023-02-12T03:14:00.811Z,100
2023-02-12T03:15:04.574Z,100
2023-02-12T03:16:07.530Z,100
2023-02-12T03:17:11.652Z,100
2023-02-12T03:18:14.609Z,100
2023-02-12T03:19:18.015Z,100
2023-02-12T03:20:21.775Z,100
2023-02-12T03:21:25.156Z,100
2023-02-12T03:22:27.899Z,100
2023-02-12T03:23:31.261Z,100
2023-02-12T03:24:34.759Z,100
2023-02-12T03:25:38.452Z,100
2023-02-12T03:26:42.175Z,100
2023-02-12T03:27:45.235Z,100
2023-02-12T03:28:48.692Z,100
2023-02-12T03:29:51.498Z,100
2023-02-12T03:30:54.693Z,100
2023-02-12T03:31:58.679Z,100
2023-02-12T03:33:02.626Z,100
2023-02-12T03:34:05.527Z,100
2023-02-12T03:35:08.056Z,100
2023-02-12T03:36:11.719Z,100
2023-02-12T03:37:15.119Z,100
2023-02-12T03:38:18.536Z,100
2023-02-12T03:39:22.027Z,100
2023-02-12T03:40:26.058Z,100
2023-02-12T03:41:29.448Z,100
2023-02-12T03:42:32.716Z,100
2023-02-12T03:43:36.069Z,100
2023-02-12T03:44:39.246Z,100
2023-02-12T03:45:42.953Z,100
2023-02-12T03:46:47.122Z,100
2023-02-12T03:47:50.683Z,100
2023-02-12T03:48:53.936Z,100
2023-02-12T03:49:57.115Z,100
2023-02-12T03:51:00.619Z,100
2023-02-12T03:52:04.132Z,100
2023-02-12T03:53:07.661Z,100
2023-02-12T03:54:10.789Z,100
2023-02-12T03:55:13.534Z,100
2023-02-12T03:56:16.594Z,100
2023-02-12T03:57:20.310Z,100
2023-02-12T03:58:23.730Z,100
2023-02-12T03:59:26.443Z,100
2023-02-12T04:00:29.519Z,100
2023-02-12T04:01:33.651Z,100
2023-02-12T04:02:37.021Z,100
2023-02-12T04:03:40.433Z,100
2023-02-12T04:04:43.923Z,100
2023-02-12T04:05:47.072Z,100
2023-02-12T04:06:50.357Z,100
2023-02-12T04:07:54.154Z,100
2023-02-12T04:08:57.522Z,100
2023-02-12T04:09:59.970Z,100
2023-02-12T04:11:02.845Z,100
2023-02-12T04:12:06.306Z,100
2023-02-12T04:13:10.035Z,100
2023-02-12T04:14:13.634Z,100
2023-02-12T04:15:16.961Z,100
2023-02-12T04:16:21.280Z,100
2023-02-12T04:17:25.608Z,100
2023-02-12T04:18:29.629Z,100
2023-02-12T04:19:32.642Z,100
2023-02-12T04:20:35.927Z,100
2023-02-12T04:21:39.018Z,100
2023-02-12T04:22:42.110Z,100
2023-02-12T04:23:45.386Z,100
2023-02-12T04:24:49.107Z,100
2023-02-12T04:25:51.863Z,100
2023-02-12T04:26:54.896Z,100
2023-02-12T04:27:58.694Z,100
2023-02-12T04:29:02.257Z,100
2023-02-12T04:30:05.329Z,100
2023-02-12T04:31:09.505Z,100
2023-02-12T04:32:12.372Z,100
2023-02-12T04:33:14.908Z,100
2023-02-12T04:34:18.718Z,100
2023-02-12T04:35:21.836Z,100
2023-02-12T04:36:25.176Z,100
2023-02-12T04:37:28.590Z,100
2023-02-12T04:38:31.560Z,100
2023-02-12T04:39:35.354Z,100
2023-02-12T04:40:39.147Z,100
2023-02-12T04:41:42.488Z,100
2023-02-12T04:42:45.927Z,100
2023-02-12T04:43:49.046Z,100
2023-02-12T04:44:52.029Z,100
2023-02-12T04:45:56.589Z,100
2023-02-12T04:47:00.692Z,100
2023-02-12T04:48:03.244Z,100
2023-02-12T04:49:06.584Z,100
2023-02-12T04:50:10.062Z,100
2023-02-12T04:51:13.124Z,100
2023-02-12T04:52:15.921Z,100
2023-02-12T04:53:18.819Z,100
2023-02-12T04:54:22.288Z,100
2023-02-12T04:55:25.381Z,100
2023-02-12T04:56:28.907Z,100
2023-02-12T04:57:31.375Z,100
2023-02-12T04:58:34.730Z,100
2023-02-12T04:59:38.460Z,100
2023-02-12T05:00:41.641Z,100
2023-02-12T05:01:45.070Z,100
2023-02-12T05:02:48.805Z,100
2023-02-12T05:03:51.784Z,100
2023-02-12T05:04:54.924Z,100
2023-02-12T05:05:59.056Z,100
2023-02-12T05:07:02.770Z,100
2023-02-12T05:08:06.512Z,100
2023-02-12T05:09:09.305Z,100
2023-02-12T05:10:12.370Z,100
2023-02-12T05:11:16.165Z,100
2023-02-12T05:12:19.590Z,100
2023-02-12T05:13:22.933Z,100
2023-02-12T05:14:26.306Z,100
2023-02-12T05:15:29.844Z,100
2023-02-12T05:16:32.157Z,100
2023-02-12T05:17:35.336Z,100
2023-02-12T05:18:38.074Z,99.8
2023-02-12T05:19:40.962Z,99.7
2023-02-12T05:20:43.946Z,99.7
2023-02-12T05:21:47.408Z,99.6
2023-02-12T05:22:51.165Z,99.7
2023-02-12T05:23:53.898Z,99.8
2023-02-12T05:24:56.973Z,99.8
2023-02-12T05:26:00.399Z,99.8
2023-02-12T05:27:04.118Z,99.8
2023-02-12T05:28:07.614Z,99.8
2023-02-12T05:29:10.708Z,99.7
2023-02-12T05:30:12.609Z,99.6
2023-02-12T05:31:20.087Z,99.5
2023-02-12T05:32:25.030Z,99.3
2023-02-12T05:33:28.031Z,99.1
2023-02-12T05:34:31.725Z,99.1
2023-02-12T05:35:34.427Z,99
2023-02-12T05:36:37.130Z,98.9
2023-02-12T05:37:40.871Z,98.9
2023-02-12T05:38:43.868Z,98.8
2023-02-12T05:39:46.851Z,98.7
2023-02-12T05:40:50.134Z,98.6
2023-02-12T05:41:52.929Z,98.7
2023-02-12T05:42:56.684Z,98.7
2023-02-12T05:44:00.142Z,98.7
2023-02-12T05:45:02.461Z,98.8
2023-02-12T05:46:06.074Z,98.7
2023-02-12T05:47:09.568Z,98.7
2023-02-12T05:48:12.075Z,98.6
2023-02-12T05:49:15.504Z,98.5
2023-02-12T05:50:18.951Z,98.4
2023-02-12T05:51:21.764Z,98.3
2023-02-12T05:52:25.644Z,98.1
2023-02-12T05:53:29.044Z,98.1
2023-02-12T05:54:32.111Z,98.1
2023-02-12T05:55:34.705Z,98.2
2023-02-12T05:56:38.067Z,98.2
2023-02-12T05:57:41.612Z,98.3
2023-02-12T05:58:45.309Z,98.3
2023-02-12T05:59:48.459Z,98.2
2023-02-12T06:00:51.441Z,98.2
2023-02-12T06:01:54.289Z,98.1
2023-02-12T06:02:58.021Z,98.1
2023-02-12T06:04:01.519Z,98.1
2023-02-12T06:05:05.084Z,98.1
2023-02-12T06:06:08.186Z,98
2023-02-12T06:07:11.243Z,98
2023-02-12T06:08:14.962Z,97.8
2023-02-12T06:09:19.088Z,97.8
2023-02-12T06:10:22.488Z,97.8
2023-02-12T06:11:25.582Z,97.8
2023-02-12T06:12:28.597Z,97.7
2023-02-12T06:13:31.378Z,97.7
2023-02-12T06:14:34.868Z,97.7
2023-02-12T06:15:38.722Z,97.7
2023-02-12T06:16:41.703Z,97.8
2023-02-12T06:17:45.002Z,97.9
2023-02-12T06:18:48.082Z,98
2023-02-12T06:19:51.513Z,98
2023-02-12T06:20:54.571Z,98.3
2023-02-12T06:21:57.289Z,98.2
2023-02-12T06:23:00.462Z,98.3
2023-02-12T06:24:02.955Z,98.2
2023-02-12T06:25:06.693Z,98.2
2023-02-12T06:26:10.506Z,98.2
2023-02-12T06:27:13.940Z,98.2
2023-02-12T06:28:17.045Z,98.2
2023-02-12T06:29:20.808Z,98.2
2023-02-12T06:30:24.186Z,98.1
2023-02-12T06:31:28.280Z,98
2023-02-12T06:32:31.923Z,98
2023-02-12T06:33:35.083Z,98
2023-02-12T06:34:38.756Z,98
2023-02-12T06:35:41.820Z,98.1
2023-02-12T06:36:44.035Z,98.3
2023-02-12T06:37:47.019Z,98.4
2023-02-12T06:38:50.495Z,98.7
2023-02-12T06:39:53.004Z,99
2023-02-12T06:40:56.217Z,99.3
2023-02-12T06:41:59.276Z,99.4
2023-02-12T06:43:01.858Z,99.5
2023-02-12T06:44:05.301Z,99.7
2023-02-12T06:45:09.039Z,99.8
2023-02-12T06:46:12.359Z,99.8
2023-02-12T06:47:15.859Z,99.8
2023-02-12T06:48:19.131Z,99.6
2023-02-12T06:49:21.861Z,99.4
2023-02-12T06:50:25.496Z,99.3
2023-02-12T06:51:28.510Z,99.3
2023-02-12T06:52:31.601Z,99.2
2023-02-12T06:53:34.755Z,99.1
2023-02-12T06:54:37.337Z,99.1
2023-02-12T06:55:40.516Z,99
2023-02-12T06:56:43.728Z,98.8
2023-02-12T06:57:47.109Z,98.8
2023-02-12T06:58:49.998Z,98.7
2023-02-12T06:59:53.448Z,98.7
2023-02-12T07:00:57.405Z,98.7
2023-02-12T07:02:00.766Z,98.5
2023-02-12T07:03:04.255Z,98.6
2023-02-12T07:04:07.616Z,98.6
2023-02-12T07:05:10.632Z,98.6
2023-02-12T07:06:13.999Z,98.5
2023-02-12T07:07:16.776Z,98.3
2023-02-12T07:08:20.035Z,98.2
2023-02-12T07:09:22.615Z,98
2023-02-12T07:10:25.869Z,98
2023-02-12T07:11:29.027Z,97.8
2023-02-12T07:12:32.546Z,97.8
2023-02-12T07:13:35.979Z,97.7
2023-02-12T07:14:38.866Z,97.6
2023-02-12T07:15:42.513Z,97.5
2023-02-12T07:16:45.365Z,97.5
2023-02-12T07:17:49.459Z,97.4
2023-02-12T07:18:52.912Z,97.4
2023-02-12T07:19:55.707Z,97.3
2023-02-12T07:20:58.459Z,97.3
2023-02-12T07:22:01.623Z,97.2
2023-02-12T07:23:04.732Z,97.1
2023-02-12T07:24:07.547Z,97
2023-02-12T07:25:11.275Z,97.2
2023-02-12T07:26:14.015Z,97.3
2023-02-12T07:27:17.166Z,97.7
2023-02-12T07:28:21.033Z,98
2023-02-12T07:29:23.556Z,98.4
2023-02-12T07:30:26.898Z,98.8
2023-02-12T07:31:31.144Z,99.1
2023-02-12T07:32:34.873Z,99.1
2023-02-12T07:33:38.691Z,99.3
2023-02-12T07:34:42.133Z,99.4
2023-02-12T07:35:45.568Z,99.3
2023-02-12T07:36:49.318Z,99.4
2023-02-12T07:37:53.065Z,99.5
2023-02-12T07:38:56.057Z,99.7
2023-02-12T07:39:58.520Z,99.8
2023-02-12T07:41:01.617Z,99.4
2023-02-12T07:42:04.648Z,99.1
2023-02-12T07:43:08.407Z,99
2023-02-12T07:44:11.877Z,99
2023-02-12T07:45:14.686Z,99.2
2023-02-12T07:46:18.472Z,99.5
2023-02-12T07:47:22.460Z,99.6
2023-02-12T07:48:25.874Z,99.6
2023-02-12T07:49:29.035Z,99.8
2023-02-12T07:50:38.782Z,99.7
2023-02-12T07:51:42.161Z,99.9
2023-02-12T07:52:45.644Z,100
2023-02-12T07:53:48.719Z,100
2023-02-12T07:54:51.851Z,100
2023-02-12T07:55:56.622Z,100
2023-02-12T07:57:00.575Z,99.9
2023-02-12T07:58:03.953Z,99.8
2023-02-12T07:59:06.770Z,99.8
2023-02-12T08:00:10.234Z,99.7
2023-02-12T08:01:13.044Z,99.1
2023-02-12T08:02:16.143Z,98.7
2023-02-12T08:03:18.622Z,98.5
2023-02-12T08:04:22.075Z,98.4
2023-02-12T08:05:25.478Z,98.6
2023-02-12T08:06:28.917Z,98.7
2023-02-12T08:07:31.940Z,98.7
2023-02-12T08:08:34.426Z,98.7
2023-02-12T08:09:37.483Z,98.6
2023-02-12T08:10:41.011Z,98.3
2023-02-12T08:11:44.524Z,98.3
2023-02-12T08:12:47.867Z,98.4
2023-02-12T08:13:50.584Z,98.6
2023-02-12T08:14:53.391Z,98.7
2023-02-12T08:15:58.453Z,98.5
2023-02-12T08:17:01.804Z,98.4
2023-02-12T08:18:04.583Z,97.8
2023-02-12T08:19:27.021Z,97.6
2023-02-12T08:20:30.400Z,97.7
2023-02-12T08:21:32.868Z,97.7
2023-02-12T08:22:35.958Z,97.6
2023-02-12T08:23:39.319Z,97.6
2023-02-12T08:24:42.995Z,97.6
2023-02-12T08:25:45.416Z,97.5
2023-02-12T08:26:48.893Z,97.4
2023-02-12T08:27:52.312Z,97.2
2023-02-12T08:28:55.446Z,97.1
2023-02-12T08:29:57.968Z,97
2023-02-12T08:31:02.431Z,96.7
2023-02-12T08:32:06.440Z,96.8
2023-02-12T08:33:10.092Z,96.8
2023-02-12T08:34:12.800Z,97
2023-02-12T08:35:15.874Z,97.2
2023-02-12T08:36:18.413Z,97.3
2023-02-12T08:37:21.189Z,97.4
2023-02-12T08:38:24.392Z,97.5
2023-02-12T08:39:28.081Z,97.3
2023-02-12T08:40:32.363Z,97.2
2023-02-12T08:41:34.840Z,97.2
2023-02-12T08:42:37.814Z,97.2
2023-02-12T08:43:40.699Z,97
2023-02-12T08:44:43.774Z,97
2023-02-12T08:45:47.278Z,97.3
2023-02-12T08:46:50.998Z,97.2
2023-02-12T08:47:53.784Z,97.2
2023-02-12T08:48:56.570Z,97.1
2023-02-12T08:49:59.925Z,97
2023-02-12T08:51:02.960Z,97
2023-02-12T08:52:06.635Z,96.9
2023-02-12T08:53:10.127Z,96.8
2023-02-12T08:54:13.491Z,96.7
2023-02-12T08:55:16.906Z,96.5
2023-02-12T08:56:19.951Z,96.4
2023-02-12T08:57:23.097Z,96.4
2023-02-12T08:58:26.166Z,96.2
2023-02-12T08:59:29.535Z,96.4
2023-02-12T09:00:33.526Z,96.3
2023-02-12T09:01:36.252Z,96.1
2023-02-12T09:02:40.015Z,96
2023-02-12T09:03:43.783Z,95.7
2023-02-12T09:04:46.224Z,95.5
2023-02-12T09:05:49.215Z,95.3
2023-02-12T09:06:52.557Z,95
2023-02-12T09:07:55.964Z,95
2023-02-12T09:08:58.996Z,94.9
2023-02-12T09:10:02.303Z,94.8
2023-02-12T09:11:05.503Z,94.3
2023-02-12T09:12:08.923Z,94.2
2023-02-12T09:13:11.913Z,94.2
2023-02-12T09:14:15.015Z,94.4
2023-02-12T09:15:17.839Z,93.9
2023-02-12T09:16:20.771Z,93.5
2023-02-12T09:17:24.498Z,93.4
2023-02-12T09:18:27.942Z,93.1
2023-02-12T09:19:31.928Z,93.1
2023-02-12T09:20:35.296Z,93.1
2023-02-12T09:21:38.692Z,93.4
2023-02-12T09:22:41.995Z,93.6
2023-02-12T09:23:45.788Z,93.8
2023-02-12T09:24:49.238Z,93.2
2023-02-12T09:25:52.300Z,92.6
2023-02-12T09:26:55.418Z,92.3
2023-02-12T09:27:59.357Z,92
2023-02-12T09:29:02.015Z,91.6
2023-02-12T09:30:04.304Z,91.2
2023-02-12T09:31:08.598Z,90.8
2023-02-12T09:32:12.439Z,90.9
2023-02-12T09:33:15.680Z,91.2
2023-02-12T09:34:18.836Z,91.1
2023-02-12T09:35:21.562Z,91
2023-02-12T09:36:24.849Z,90.6
2023-02-12T09:37:27.690Z,90.9
2023-02-12T09:38:31.142Z,91
2023-02-12T09:39:34.932Z,90.9
2023-02-12T09:40:37.971Z,90.5
2023-02-12T09:41:40.708Z,90.1
2023-02-12T09:42:43.443Z,90
2023-02-12T09:43:47.472Z,89.6
2023-02-12T09:44:51.139Z,89.4
2023-02-12T09:45:55.962Z,89.6
2023-02-12T09:47:00.487Z,89.3
2023-02-12T09:48:03.992Z,88.8
2023-02-12T09:49:07.411Z,87.9
2023-02-12T09:50:11.150Z,87.8
2023-02-12T09:51:14.601Z,88.1
2023-02-12T09:52:18.411Z,88.4
2023-02-12T09:53:22.469Z,88.7
2023-02-12T09:54:25.910Z,89.1
2023-02-12T09:55:29.076Z,89
2023-02-12T09:56:32.491Z,89
2023-02-12T09:57:35.571Z,89.4
2023-02-12T09:58:38.760Z,89.5
2023-02-12T09:59:42.207Z,89.5
2023-02-12T10:00:45.370Z,89.5
2023-02-12T10:01:48.695Z,89.5
2023-02-12T10:02:52.288Z,89.2
2023-02-12T10:03:55.827Z,88.5
2023-02-12T10:05:04.065Z,87.9
2023-02-12T10:06:08.099Z,87.2
2023-02-12T10:07:11.547Z,86.3
2023-02-12T10:08:15.005Z,85.2
2023-02-12T10:09:17.714Z,83.1
2023-02-12T10:10:20.806Z,83.1
2023-02-12T10:11:24.203Z,83.8
2023-02-12T10:12:27.701Z,84
2023-02-12T10:13:31.200Z,83.5
2023-02-12T10:14:34.538Z,82.6
2023-02-12T10:15:38.363Z,82
2023-02-12T10:16:41.865Z,83.1
2023-02-12T10:17:45.284Z,83.5
2023-02-12T10:18:48.767Z,84
2023-02-12T10:19:52.815Z,84.4
2023-02-12T10:20:56.756Z,84.7
2023-02-12T10:22:01.438Z,84
2023-02-12T10:23:04.568Z,84
2023-02-12T10:24:08.063Z,82.8
2023-02-12T10:25:11.221Z,82.1
2023-02-12T10:26:14.674Z,82.2
2023-02-12T10:27:18.435Z,81.4
2023-02-12T10:28:21.944Z,80.9
2023-02-12T10:29:25.215Z,80.9
2023-02-12T10:30:28.531Z,80.9
2023-02-12T10:31:32.684Z,80.4
2023-02-12T10:32:36.761Z,80.6
2023-02-12T10:33:40.756Z,80.8
2023-02-12T10:34:44.114Z,81.3
2023-02-12T10:35:47.242Z,81.4
2023-02-12T10:36:50.368Z,81.4
2023-02-12T10:37:54.504Z,81.1
2023-02-12T10:38:57.791Z,80.9
2023-02-12T10:40:01.557Z,81.7
2023-02-12T10:41:05.030Z,82.1
2023-02-12T10:42:07.968Z,82.1
2023-02-12T10:43:11.817Z,82.1
2023-02-12T10:44:14.932Z,83
2023-02-12T10:45:18.701Z,83.4
2023-02-12T10:46:22.290Z,83.4
2023-02-12T10:47:25.681Z,83.2
2023-02-12T10:48:29.629Z,83.1
2023-02-12T10:49:33.867Z,83
2023-02-12T10:50:36.346Z,83.1
2023-02-12T10:51:39.029Z,82.7
2023-02-12T10:52:42.163Z,82.8
2023-02-12T10:53:45.670Z,82.3
2023-02-12T10:54:48.751Z,82.6
2023-02-12T10:55:52.290Z,82.2
2023-02-12T10:56:55.505Z,83.1
2023-02-12T10:57:58.579Z,83.2
2023-02-12T10:59:02.088Z,83.3
2023-02-12T11:00:04.838Z,83
2023-02-12T11:01:08.160Z,83.2
2023-02-12T11:02:11.933Z,83
2023-02-12T11:03:15.313Z,82.4
2023-02-12T11:04:18.682Z,81.8
2023-02-12T11:05:21.414Z,81.6
2023-02-12T11:06:24.456Z,81.5
2023-02-12T11:07:27.930Z,81.8
2023-02-12T11:08:30.665Z,82.2
2023-02-12T11:09:33.809Z,82.7
2023-02-12T11:10:36.577Z,82.9
2023-02-12T11:11:39.926Z,82.9
2023-02-12T11:12:42.068Z,82.7
2023-02-12T11:13:45.147Z,82.6
2023-02-12T11:14:48.630Z,83
2023-02-12T11:15:52.751Z,83
2023-02-12T11:16:56.341Z,83
2023-02-12T11:18:00.112Z,82.4
2023-02-12T11:19:04.036Z,82.4
2023-02-12T11:20:07.845Z,82.6
2023-02-12T11:21:11.591Z,82.2
2023-02-12T11:22:14.673Z,81.6
2023-02-12T11:23:18.455Z,81.4
2023-02-12T11:24:22.112Z,81.5
2023-02-12T11:25:25.905Z,81.6
2023-02-12T11:26:29.335Z,81.7
2023-02-12T11:27:32.719Z,81.7
2023-02-12T11:28:35.661Z,81.3
2023-02-12T11:29:39.470Z,81
2023-02-12T11:30:42.774Z,81.2
2023-02-12T11:31:46.353Z,80.8
2023-02-12T11:32:50.344Z,81.5
2023-02-12T11:33:53.912Z,81.2
2023-02-12T11:34:57.866Z,80.9
2023-02-12T11:36:07.128Z,80.5
2023-02-12T11:37:11.865Z,80.3
2023-02-12T11:38:15.592Z,80.1
2023-02-12T11:39:18.981Z,79.7
2023-02-12T11:40:22.335Z,79.4
2023-02-12T11:41:25.778Z,79.1
2023-02-12T11:42:28.810Z,79.3
2023-02-12T11:43:32.657Z,79
2023-02-12T11:44:35.290Z,79.1
2023-02-12T11:45:38.414Z,79.1
2023-02-12T11:46:42.083Z,78.9
2023-02-12T11:47:44.936Z,78.6
2023-02-12T11:48:48.596Z,78.4
2023-02-12T11:49:51.433Z,78.8
2023-02-12T11:50:54.726Z,78.5
2023-02-12T11:51:57.721Z,79
2023-02-12T11:53:00.348Z,78.4
2023-02-12T11:54:03.811Z,78.4
2023-02-12T11:55:06.906Z,79.7
2023-02-12T11:56:09.978Z,81.4
2023-02-12T11:57:13.694Z,77.9
2023-02-12T11:58:17.443Z,77.3
2023-02-12T11:59:20.862Z,77.3
2023-02-12T12:00:23.649Z,77.1
2023-02-12T12:01:27.358Z,77.2
2023-02-12T12:02:31.093Z,77.3
2023-02-12T12:03:34.862Z,77.3
2023-02-12T12:04:37.999Z,77.3
2023-02-12T12:05:41.057Z,77.6
2023-02-12T12:06:43.997Z,77.5
2023-02-12T12:07:47.374Z,77.9
2023-02-12T12:08:50.797Z,77.3
2023-02-12T12:09:54.442Z,76.2
2023-02-12T12:10:57.504Z,76.2
2023-02-12T12:12:00.658Z,76.8
2023-02-12T12:13:04.227Z,76.8
2023-02-12T12:14:06.897Z,77
2023-02-12T12:15:10.365Z,77.3
2023-02-12T12:16:13.926Z,76.7
2023-02-12T12:17:17.923Z,75.9
2023-02-12T12:18:21.986Z,76.1
2023-02-12T12:19:27.221Z,76.1
2023-02-12T12:20:31.548Z,76
2023-02-12T12:21:35.618Z,76.1
2023-02-12T12:22:38.777Z,76.5
2023-02-12T12:23:42.908Z,76.5
2023-02-12T12:24:46.096Z,76.7
2023-02-12T12:25:49.234Z,77.2
2023-02-12T12:26:52.470Z,76.4
2023-02-12T12:27:55.456Z,76.6
2023-02-12T12:28:59.540Z,77
2023-02-12T12:30:02.017Z,77.4
2023-02-12T12:31:05.549Z,77.7
2023-02-12T12:32:08.227Z,77.2
2023-02-12T12:33:10.999Z,76.9
2023-02-12T12:34:14.587Z,76.8
2023-02-12T12:35:17.768Z,76
2023-02-12T12:36:21.153Z,76
2023-02-12T12:37:24.927Z,75.3
2023-02-12T12:38:27.368Z,75.4
2023-02-12T12:39:30.452Z,75.2
2023-02-12T12:40:33.748Z,75.2
2023-02-12T12:41:37.183Z,75.4
2023-02-12T12:42:40.330Z,75.8
2023-02-12T12:43:43.583Z,76.1
2023-02-12T12:44:47.053Z,76.5
2023-02-12T12:45:50.478Z,77.2
2023-02-12T12:46:54.678Z,77.5
2023-02-12T12:47:57.838Z,78
2023-02-12T12:49:01.527Z,78.1
2023-02-12T12:50:05.707Z,78.1
2023-02-12T12:51:09.375Z,78.2
2023-02-12T12:52:12.697Z,78.4
2023-02-12T12:53:16.172Z,78.6
2023-02-12T12:54:19.254Z,78.6
2023-02-12T12:55:22.838Z,78.9
2023-02-12T12:56:26.267Z,78.9
2023-02-12T12:57:29.343Z,79.2
2023-02-12T12:58:32.674Z,79.4
2023-02-12T12:59:35.786Z,79.6
2023-02-12T13:00:39.179Z,79.4
2023-02-12T13:01:42.231Z,79.5
2023-02-12T13:02:45.917Z,79.9
2023-02-12T13:03:49.938Z,80.1
2023-02-12T13:04:53.046Z,80.1
2023-02-12T13:05:58.189Z,80.7
2023-02-12T13:07:01.647Z,81.5
2023-02-12T13:08:04.937Z,82.2
2023-02-12T13:09:08.326Z,82.7
2023-02-12T13:10:11.490Z,83.3
2023-02-12T13:11:14.586Z,82.9
2023-02-12T13:12:17.450Z,83.4
2023-02-12T13:13:20.839Z,84.3
2023-02-12T13:14:24.237Z,84.5
2023-02-12T13:15:27.656Z,83.8
2023-02-12T13:16:30.753Z,84.2
2023-02-12T13:17:33.686Z,84.3
2023-02-12T13:18:37.438Z,84.7
2023-02-12T13:19:39.629Z,84.7
2023-02-12T13:20:42.589Z,84.6
2023-02-12T13:21:46.357Z,85
2023-02-12T13:22:49.432Z,85.1
2023-02-12T13:23:52.873Z,85.2
2023-02-12T13:24:55.791Z,85.5
2023-02-12T13:25:59.805Z,85.1
2023-02-12T13:27:03.072Z,84.9
2023-02-12T13:28:06.432Z,83.9
2023-02-12T13:29:09.702Z,84
2023-02-12T13:30:12.786Z,84.4
2023-02-12T13:31:35.555Z,84.3
2023-02-12T13:32:39.863Z,84.2
2023-02-12T13:33:42.704Z,84.1
2023-02-12T13:34:45.780Z,84.3
2023-02-12T13:35:49.502Z,84.4
2023-02-12T13:36:53.167Z,84.6
2023-02-12T13:37:56.568Z,84.6
2023-02-12T13:38:59.029Z,84.3
2023-02-12T13:40:02.414Z,84.9
2023-02-12T13:41:05.857Z,85.3
2023-02-12T13:42:09.020Z,86.1
2023-02-12T13:43:12.097Z,86.5
2023-02-12T13:44:15.836Z,86.3
2023-02-12T13:45:18.119Z,85.9
2023-02-12T13:46:21.758Z,85.3
2023-02-12T13:47:24.971Z,85.2
2023-02-12T13:48:28.674Z,85.4
2023-02-12T13:49:32.051Z,85.7
2023-02-12T13:50:35.296Z,86.1
2023-02-12T13:51:38.705Z,86.3
2023-02-12T13:52:42.785Z,86.6
2023-02-12T13:53:46.231Z,86.6
2023-02-12T13:54:50.170Z,86.6
2023-02-12T13:55:53.529Z,86.7
2023-02-12T13:56:58.007Z,87
2023-02-12T13:58:01.448Z,87.2
2023-02-12T13:59:05.428Z,86.6
2023-02-12T14:00:08.495Z,86.5
2023-02-12T14:01:11.472Z,86.5
2023-02-12T14:02:15.072Z,86.5
2023-02-12T14:03:18.961Z,86.3
2023-02-12T14:04:22.399Z,85.8
2023-02-12T14:05:26.175Z,85.8
2023-02-12T14:06:28.623Z,85.7
2023-02-12T14:07:31.780Z,85.7
2023-02-12T14:08:35.331Z,85.6
2023-02-12T14:09:38.932Z,85.6
2023-02-12T14:10:42.329Z,85.6
2023-02-12T14:11:46.014Z,85.7
2023-02-12T14:12:49.396Z,85.9
2023-02-12T14:13:52.731Z,85.9
2023-02-12T14:14:56.087Z,86.1
2023-02-12T14:16:01.262Z,86.3